Latest Weather Observations for Essendon Airport

IDV60801

Issued at 11:02 am EDT Tuesday 28 March 2017 (issued every 30 minutes, with the page automatically refreshed every 10 minutes)

About weather observations | Map of weather stations | Latest weather observations for VIC | Other Formats
Station Details ID: 086038 Name: ESSENDON AIRPORT Lat: -37.73 Lon: 144.91 Height: 78.4 m
Data from the previous 72 hours. | See also: Recent months at Essendon Airport
Date/Time
EDT
Temp
°C
App
Temp
°C
Dew
Point
°C
Rel
Hum
%
Delta-T
°C
Wind Press
QNH
hPa
Press
MSL
hPa
Rain since
9am
mm
Dir  Spd
km/h
Gust
km/h
Spd
kts
Gust
kts
28/11:00am 18.5 16.0 9.6 56 4.7 WNW 13 19 7 10 1014.9 1014.8 0.0
28/10:30am 18.4 16.1 10.3 59 4.3 WNW 13 19 7 10 1015.4 1015.2 0.0
28/10:00am 17.2 14.8 9.9 62 3.9 WNW 13 20 7 11 1015.4 1015.2 0.0
28/09:30am 16.4 14.1 10.5 68 3.1 NW 13 19 7 10 1015.0 1014.9 0.0
28/09:00am 14.5 13.1 10.9 79 1.9 NNW 9 13 5 7 1015.0 1014.9 2.2
28/08:30am 12.6 10.8 10.8 89 0.9 NNW 11 13 6 7 1014.7 1014.6 2.2
28/08:00am 11.1 9.0 9.9 92 0.6 NNW 11 15 6 8 1014.7 1014.6 2.2
28/07:30am 10.8 7.9 9.7 93 0.6 NNW 15 17 8 9 1014.5 1014.4 2.2
28/07:00am 10.4 7.8 9.2 92 0.6 NNW 13 13 7 7 1014.4 1014.3 2.2
28/06:30am 10.9 8.7 9.5 91 0.7 NW 11 13 6 7 1014.0 1013.9 2.2
28/06:00am 11.2 9.1 9.6 90 0.8 NNW 11 13 6 7 1013.8 1013.7 2.2
28/05:30am 11.3 8.8 9.7 90 0.8 N 13 15 7 8 1013.6 1013.5 2.2
28/05:00am 11.6 9.1 9.7 88 1.0 NNW 13 15 7 8 1013.5 1013.4 2.2
28/04:30am 11.9 9.7 9.5 85 1.2 NNW 11 15 6 8 1013.4 1013.3 2.2
28/04:00am 11.8 9.7 9.9 88 1.0 NNW 11 13 6 7 1013.6 1013.5 2.2
28/03:30am 12.2 9.8 10.1 87 1.1 NNW 13 15 7 8 1013.7 1013.6 2.2
28/03:00am 12.4 10.1 10.5 88 1.0 N 13 15 7 8 1013.6 1013.5 2.2
28/02:30am 12.7 9.7 10.8 88 1.0 NNW 17 19 9 10 1013.7 1013.6 2.2
28/02:00am 12.6 10.3 10.5 87 1.1 NNW 13 15 7 8 1013.9 1013.8 2.2
28/01:30am 12.9 11.0 10.6 86 1.2 N 11 13 6 7 1013.7 1013.6 2.2
28/01:00am 13.0 10.8 10.9 87 1.1 NNW 13 15 7 8 1013.8 1013.7 2.2
28/12:30am 12.7 10.9 10.8 88 1.0 N 11 13 6 7 1014.0 1013.9 2.2
28/12:00am 13.1 11.3 11.0 87 1.1 NNW 11 15 6 8 1014.1 1014.0 2.2
 
Date/Time
EDT
Temp
°C
App
Temp
°C
Dew
Point
°C
Rel
Hum
%
Delta-T
°C
Wind Press
QNH
hPa
Press
MSL
hPa
Rain since
9am
mm
Dir  Spd
km/h
Gust
km/h
Spd
kts
Gust
kts
27/11:30pm 13.3 11.5 11.0 86 1.2 NNW 11 13 6 7 1013.9 1013.8 2.2
27/11:00pm 14.2 13.4 11.2 82 1.6 NW 6 9 3 5 1014.0 1013.9 2.2
27/10:30pm 15.3 14.0 11.3 77 2.1 NW 9 11 5 6 1013.9 1013.8 2.2
27/10:00pm 15.3 15.3 11.1 76 2.2 N 2 7 1 4 1013.4 1013.3 2.2
27/09:30pm 15.0 15.0 11.0 77 2.1 NNE 2 6 1 3 1013.1 1013.0 2.2
27/09:00pm 15.8 15.0 11.6 76 2.3 N 7 9 4 5 1012.6 1012.4 2.2
27/08:30pm 16.1 16.3 10.4 69 3.0 CALM 0 0 0 0 1012.4 1012.2 2.2
27/08:00pm 17.0 17.2 10.4 65 3.5 CALM 0 0 0 0 1011.9 1011.7 2.2
27/07:30pm 17.2 16.1 9.9 62 3.9 SW 6 7 3 4 1011.7 1011.5 2.2
27/07:00pm 18.1 15.0 10.2 60 4.2 WSW 17 24 9 13 1011.7 1011.5 2.2
27/06:30pm 19.0 15.5 10.3 57 4.7 SW 19 26 10 14 1011.9 1011.7 2.2
27/06:00pm 19.4 16.0 10.4 56 4.9 W 19 26 10 14 1011.8 1011.6 2.2
27/05:30pm 19.0 14.3 10.8 59 4.5 WNW 26 35 14 19 1011.4 1011.2 2.2
27/05:00pm 18.0 17.6 16.3 90 1.0 W 13 19 7 10 1011.8 1011.6 2.2
27/04:30pm 17.1 14.4 15.6 91 0.9 WSW 24 35 13 19 1011.7 1011.5 2.0
27/04:00pm 17.9 12.3 15.5 86 1.4 WSW 39 52 21 28 1010.3 1010.1 2.0
27/03:30pm 17.3 13.1 15.6 90 1.0 W 32 48 17 26 1009.7 1009.5 1.8
27/03:00pm 18.3 12.6 15.2 82 1.8 WSW 39 57 21 31 1009.1 1008.9 0.8
27/02:53pm 19.0 14.1 15.3 79 2.2 WSW 35 57 19 31 1009.5 1009.3 0.8
27/02:30pm 20.5 14.7 16.1 76 2.6 WSW 41 56 22 30 1008.8 1008.6 0.2
27/02:05pm 20.6 14.8 17.4 82 2.0 WSW 44 63 24 34 1008.3 1008.1 0.2
27/02:00pm 20.7 13.7 16.3 76 2.7 WSW 48 63 26 34 1008.3 1008.1 0.0
27/01:41pm 23.1 16.3 15.9 64 4.4 WSW 46 69 25 37 1007.2 1007.0 0.0
27/01:35pm 25.6 22.1 15.6 54 6.1 WNW 28 65 15 35 1007.1 1006.9 0.0
27/01:34pm 28.2 25.6 15.8 47 7.6 NW 24 57 13 31 1006.9 1006.7 0.0
27/01:30pm 30.6 28.2 15.5 40 9.4 NNW 22 30 12 16 1005.9 1005.7 0.0
27/01:02pm 30.6 25.2 15.1 39 9.5 NNW 37 56 20 30 1005.1 1004.9 0.0
27/01:00pm 30.5 24.6 14.6 38 9.7 NNW 39 56 21 30 1004.9 1004.7 0.0
27/12:30pm 30.4 23.3 14.1 37 9.9 N 44 69 24 37 1003.5 1003.3 0.0
27/12:00pm 30.3 21.5 14.4 38 9.7 N 54 72 29 39 1003.4 1003.2 0.0
27/11:30am 30.1 21.2 14.2 38 9.6 N 54 74 29 40 1003.9 1003.7 0.0
27/11:00am 29.4 20.7 14.8 41 8.9 N 54 78 29 42 1003.9 1003.7 0.0
27/10:30am 28.3 22.0 14.5 43 8.3 N 41 63 22 34 1004.4 1004.2 0.0
27/10:00am 27.6 20.0 14.6 45 7.9 N 48 67 26 36 1004.3 1004.1 0.0
27/09:30am 27.1 20.4 14.5 46 7.6 N 43 63 23 34 1004.8 1004.6 0.0
27/09:07am 26.2 22.3 14.3 48 7.1 NNE 28 48 15 26 1005.2 1005.0 0.0
27/09:00am 25.6 21.8 14.7 51 6.6 NNE 28 43 15 23 1005.4 1005.2 0.0
27/08:38am 25.0 21.1 14.5 52 6.3 NNE 28 50 15 27 1005.4 1005.2 0.0
27/08:30am 24.6 21.2 14.7 54 5.9 NNE 26 44 14 24 1005.6 1005.4 0.0
27/08:00am 24.4 20.6 14.8 55 5.8 NNE 28 46 15 25 1005.7 1005.5 0.0
27/07:30am 24.6 19.7 14.4 53 6.1 N 33 43 18 23 1005.5 1005.3 0.0
27/07:00am 24.5 19.9 14.6 54 5.9 N 32 46 17 25 1005.5 1005.3 0.0
27/06:30am 24.3 19.9 15.2 57 5.5 N 32 52 17 28 1005.7 1005.5 0.0
27/06:28am 24.2 20.2 15.1 56 5.5 N 30 48 16 26 1005.7 1005.5 0.0
27/06:00am 23.8 19.7 15.0 57 5.3 N 30 39 16 21 1006.1 1005.9 0.0
27/05:30am 23.5 21.4 15.3 60 4.9 N 20 30 11 16 1006.5 1006.3 0.0
27/05:00am 23.8 20.0 14.8 57 5.4 N 28 37 15 20 1006.7 1006.5 0.0
27/04:30am 23.8 19.3 13.9 54 5.8 N 30 37 16 20 1007.1 1006.9 0.0
27/04:00am 24.1 20.0 13.9 53 6.0 N 28 39 15 21 1006.9 1006.7 0.0
27/03:30am 23.5 19.0 13.9 55 5.6 N 30 43 16 23 1007.3 1007.1 0.0
27/03:00am 23.0 19.2 13.5 55 5.5 N 26 35 14 19 1008.1 1007.9 0.0
27/02:30am 22.6 19.8 14.4 60 4.8 N 22 32 12 17 1008.4 1008.2 0.0
27/02:00am 22.5 20.0 15.1 63 4.4 N 22 32 12 17 1008.6 1008.4 0.0
27/01:30am 18.7 20.1 17.9 95 0.5 NNE 7 9 4 5 1009.4 1009.2 0.0
27/01:00am 18.8 20.0 18.3 97 0.3 N 9 11 5 6 1010.2 1010.0 0.0
27/12:30am 18.4 19.5 18.1 98 0.2 ENE 9 13 5 7 1010.2 1010.0 0.0
27/12:00am 18.7 20.4 18.0 96 0.4 N 6 7 3 4 1010.8 1010.6 0.0
 
Date/Time
EDT
Temp
°C
App
Temp
°C
Dew
Point
°C
Rel
Hum
%
Delta-T
°C
Wind Press
QNH
hPa
Press
MSL
hPa
Rain since
9am
mm
Dir  Spd
km/h
Gust
km/h
Spd
kts
Gust
kts
26/11:30pm 18.8 19.7 18.3 97 0.3 N 11 11 6 6 1011.2 1011.0 0.0
26/11:00pm 19.1 19.9 18.1 94 0.6 N 11 13 6 7 1011.6 1011.4 0.0
26/10:30pm 19.3 20.2 18.3 94 0.6 N 11 13 6 7 1011.9 1011.7 0.0
26/10:00pm 19.4 21.1 18.4 94 0.6 N 7 9 4 5 1012.1 1011.9 0.0
26/09:30pm 20.1 23.2 18.6 91 0.9 CALM 0 0 0 0 1012.2 1012.0 0.0
26/09:00pm 20.2 21.9 18.0 87 1.4 S 6 6 3 3 1012.3 1012.1 0.0
26/08:30pm 20.8 21.5 18.0 84 1.7 SSW 11 13 6 7 1012.1 1011.9 0.0
26/08:00pm 20.9 21.4 17.5 81 2.1 SW 11 13 6 7 1012.2 1012.0 0.0
26/07:30pm 21.7 21.8 17.5 77 2.6 SSW 13 15 7 8 1011.8 1011.6 0.0
26/07:00pm 22.7 22.5 17.6 73 3.2 S 15 20 8 11 1011.8 1011.6 0.0
26/06:30pm 23.5 23.0 17.7 70 3.6 S 17 24 9 13 1011.7 1011.5 0.0
26/06:00pm 24.5 24.1 18.0 67 4.1 S 17 20 9 11 1011.6 1011.4 0.0
26/05:30pm 25.1 24.7 18.1 65 4.4 S 17 22 9 12 1011.6 1011.4 0.0
26/05:00pm 24.6 24.4 17.6 65 4.4 S 15 20 8 11 1011.6 1011.4 0.0
26/04:30pm 24.7 24.0 17.4 64 4.6 S 17 22 9 12 1011.6 1011.4 0.0
26/04:00pm 25.5 24.8 17.4 61 5.1 SSW 17 20 9 11 1011.6 1011.4 0.0
26/03:30pm 25.7 26.0 17.9 62 4.9 S 13 19 7 10 1012.0 1011.8 0.0
26/03:00pm 25.2 24.7 16.9 60 5.2 SSE 15 20 8 11 1012.3 1012.1 0.0
26/02:30pm 24.6 24.8 16.8 62 4.8 S 11 20 6 11 1012.6 1012.4 0.0
26/02:00pm 24.7 25.1 17.2 63 4.7 SSW 11 17 6 9 1013.1 1013.0 0.0
26/01:30pm 23.9 25.4 17.6 68 3.9 SSE 6 11 3 6 1013.6 1013.5 0.0
26/01:00pm 24.0 25.9 17.7 68 3.9 NNW 4 9 2 5 1014.2 1014.1 0.0
26/12:30pm 22.5 24.1 17.0 71 3.4 ESE 4 11 2 6 1014.8 1014.7 0.0
26/12:00pm 21.7 22.6 16.6 73 3.1 ENE 7 9 4 5 1015.2 1015.0 0.0
26/11:30am 21.0 21.8 16.4 75 2.8 ESE 7 11 4 6 1015.8 1015.6 0.0
26/11:10am 20.8 21.3 16.6 77 2.6 S 9 13 5 7 1015.9 1015.7 0.0
26/11:00am 20.8 21.8 16.8 78 2.4 SE 7 9 4 5 1015.9 1015.7 0.0
26/10:30am 20.2 20.6 16.4 79 2.3 SE 9 13 5 7 1015.9 1015.7 0.0
26/10:00am 20.0 20.5 16.6 81 2.1 SE 9 13 5 7 1015.6 1015.4 0.0
26/09:30am 19.6 20.2 16.8 84 1.7 SE 9 11 5 6 1015.4 1015.2 0.0
26/09:00am 19.4 20.5 18.1 92 0.8 SE 9 11 5 6 1014.9 1014.8 3.8
26/08:30am 19.1 20.7 18.3 95 0.5 ESE 7 9 4 5 1015.0 1014.9 3.8
26/08:00am 18.9 20.7 18.4 97 0.3 SSE 6 9 3 5 1014.8 1014.7 3.8
26/07:30am 18.5 19.6 18.0 97 0.3 SE 9 11 5 6 1014.6 1014.5 3.8
26/07:00am 18.3 19.7 17.7 96 0.4 SE 7 9 4 5 1014.2 1014.1 3.8
26/06:30am 18.8 20.7 18.5 98 0.2 S 6 9 3 5 1014.2 1014.1 3.8
26/06:00am 18.7 20.6 18.5 99 0.1 SSW 6 9 3 5 1014.1 1014.0 3.8
26/05:30am 18.5 20.1 18.3 99 0.1 SW 7 9 4 5 1013.9 1013.8 3.8
26/05:00am 18.5 21.1 18.3 99 0.1 W 2 7 1 4 1013.8 1013.7 3.8
26/04:30am 18.6 20.3 18.4 99 0.1 SW 7 9 4 5 1014.0 1013.9 3.8
26/04:00am 18.5 20.2 18.5 100 0.0 W 7 7 4 4 1014.1 1014.0 3.8
26/03:30am 18.5 20.2 18.5 100 0.0 WSW 7 9 4 5 1014.1 1014.0 3.8
26/03:00am 18.5 20.2 18.5 100 0.0 WSW 7 7 4 4 1014.2 1014.1 3.8
26/02:30am 18.5 20.2 18.5 100 0.0 W 7 11 4 6 1014.6 1014.5 3.8
26/02:00am 18.4 20.1 18.4 100 0.0 WSW 7 9 4 5 1014.5 1014.4 3.8
26/01:57am 18.4 20.1 18.4 100 0.0 WSW 7 11 4 6 1014.5 1014.4 3.8
26/01:38am 18.5 19.4 18.3 99 0.1 WSW 11 13 6 7 1014.5 1014.4 3.8
26/01:30am 18.6 19.5 18.4 99 0.1 WSW 11 13 6 7 1014.6 1014.5 3.8
26/01:07am 18.5 20.1 18.3 99 0.1 WSW 7 11 4 6 1014.7 1014.6 3.8
26/01:00am 18.4 20.0 18.2 99 0.1 WSW 7 9 4 5 1014.7 1014.6 3.8
26/12:30am 18.7 19.3 18.5 99 0.1 SW 13 17 7 9 1014.7 1014.6 3.8
26/12:00am 18.7 19.2 18.4 98 0.2 SW 13 15 7 8 1014.7 1014.6 3.8
 
Date/Time
EDT
Temp
°C
App
Temp
°C
Dew
Point
°C
Rel
Hum
%
Delta-T
°C
Wind Press
QNH
hPa
Press
MSL
hPa
Rain since
9am
mm
Dir  Spd
km/h
Gust
km/h
Spd
kts
Gust
kts
25/11:30pm 18.9 19.3 18.2 96 0.4 SW 13 17 7 9 1014.5 1014.4 3.8
25/11:00pm 19.3 18.9 18.0 92 0.8 SSW 17 22 9 12 1014.6 1014.5 3.8
25/10:30pm 19.7 19.3 18.0 90 1.1 SSW 17 24 9 13 1014.1 1014.0 3.8
25/10:00pm 20.4 18.9 17.6 84 1.7 SSW 22 30 12 16 1013.9 1013.8 3.8
25/09:30pm 20.8 22.6 19.6 93 0.8 SW 9 13 5 7 1013.5 1013.4 3.8
25/09:00pm 21.2 22.3 20.4 95 0.5 WNW 15 15 8 8 1012.8 1012.7 3.8
25/08:30pm 21.5 24.1 21.2 98 0.2 W 9 11 5 6 1012.3 1012.1 3.8
25/08:00pm 21.3 24.4 20.3 94 0.6 W 4 9 2 5 1011.9 1011.7 3.8
25/07:30pm 21.8 24.3 21.0 95 0.5 N 9 17 5 9 1011.3 1011.1 3.8
25/07:00pm 21.7 24.0 20.7 94 0.7 NNE 9 11 5 6 1010.8 1010.6 3.8
25/06:40pm 22.3 24.4 20.2 88 1.4 NNW 9 11 5 6 1010.7 1010.5 3.8
25/06:30pm 21.8 22.3 19.2 85 1.7 WNW 15 20 8 11 1011.1 1010.9 3.6
25/06:16pm 24.2 25.1 18.4 70 3.7 WNW 11 28 6 15 1011.1 1010.9 1.0
25/06:00pm 25.7 28.1 18.9 66 4.4 N 4 9 2 5 1010.5 1010.3 0.6
25/05:30pm 26.0 25.5 17.9 61 5.1 ENE 17 22 9 12 1010.0 1009.8 0.4
25/05:00pm 25.8 26.7 19.2 67 4.3 NE 13 15 7 8 1009.8 1009.6 0.4
25/04:30pm 26.7 28.4 18.0 59 5.5 NNE 6 11 3 6 1009.9 1009.7 0.4
25/04:00pm 27.4 26.6 17.0 53 6.5 NNE 17 20 9 11 1009.9 1009.7 0.0
25/03:30pm 28.8 28.2 15.7 45 8.1 NNE 13 22 7 12 1009.9 1009.7 0.0
25/03:00pm 28.5 27.3 16.1 47 7.7 N 17 30 9 16 1010.3 1010.1 0.0
25/02:30pm 28.7 26.6 16.3 47 7.7 N 22 35 12 19 1010.5 1010.3 0.0
25/02:00pm 27.6 25.5 16.2 49 7.1 N 22 28 12 15 1011.1 1010.9 0.0
25/01:30pm 27.9 26.3 16.5 50 7.1 N 20 28 11 15 1011.3 1011.1 0.0
25/01:00pm 29.0 26.9 17.2 49 7.5 N 24 35 13 19 1011.6 1011.4 0.0
25/12:30pm 26.4 23.3 16.6 55 6.1 N 28 37 15 20 1012.2 1012.0 0.0
25/12:00pm 26.6 24.0 16.8 55 6.1 N 26 41 14 22 1012.5 1012.3 0.0
25/11:30am 25.7 22.6 16.5 56 5.7 N 28 39 15 21 1012.8 1012.7 0.0

Other Formats:

Comma delimited format used in spreadsheet applications
http://www.bom.gov.au/fwo/IDV60801/IDV60801.95866.axf

JavaScript Object Notation format (JSON) in row-major order
http://www.bom.gov.au/fwo/IDV60801/IDV60801.95866.json